Main page
METAR-TAF:

METAR-TAF

Airports :

Ardabil Airport

Ardabil, Iran

latitude: 38-19-35N, longitude: 048-25-28E, elevation: 1315 m

Current weather observation

The report was made 4 hours and 26 minutes ago, at 15:00 UTC
Wind 21 kt from the East/Northeast
Temperature 20°C
Humidity 78%
Pressure 1009 hPa
Visibility 10 km or more
Few clouds at a height of 4000 ft

METAR: OITL 251500Z 06021KT 9999 FEW040 20/16 Q1009

Time: 23:56 (19:26 UTC)

Forecast

The report was made 1 hour and 56 minutes ago, at 17:30 UTC
Forecast valid from 25 at 18 UTC to 26 at 03 UTC
Wind 20 kt from the East/Northeast
Visibility: 7000 m
Few clouds at a height of 4000 ft
Becoming
from 25 at 18 UTC to 25 at 20 UTC
Wind 8 kt from the East/Northeast
Temporary
from 25 at 21 UTC to 25 at 24 UTC
Visibility: 4000 m
Few clouds at a height of 3500 ft, Cumulonimbus.
Scattered clouds at a height of 4000 ft
Broken clouds at a height of 9000 ft
mist

TAF: OITL 251730Z 2518/2603 07020KT 7000 FEW040 BECMG 2518/2520 06008KT TEMPO 2521/2524 4000 BR FEW035CB SCT040 BKN090

Weather observations and forecasts of more than 4000 airports (METAR and TAF reports).

The available stations are represented by yellow and red dots on the map.

Hover mouse over dot to see the name of the station.

Then click to see weather observations and forecasts.

To change the map : click on the green buttons with a black cross to zoom in, on the green button with a dash to zoom out, or on the green arrows for adjacent maps.


METAR-TAF: